createdAt,value
2023-01-27T00:00:27.206Z,1022.85
2023-01-27T00:01:27.180Z,1022.85
2023-01-27T00:02:27.255Z,1022.84
2023-01-27T00:03:27.241Z,1022.82
2023-01-27T00:04:27.168Z,1022.85
2023-01-27T00:05:27.176Z,1022.8
2023-01-27T00:06:27.183Z,1022.8
2023-01-27T00:07:27.187Z,1022.78
2023-01-27T00:08:27.169Z,1022.81
2023-01-27T00:09:27.198Z,1022.77
2023-01-27T00:10:27.201Z,1022.81
2023-01-27T00:11:27.171Z,1022.8
2023-01-27T00:12:27.168Z,1022.8
2023-01-27T00:13:27.187Z,1022.78
2023-01-27T00:14:27.173Z,1022.8
2023-01-27T00:15:27.155Z,1022.76
2023-01-27T00:16:27.180Z,1022.74
2023-01-27T00:17:27.154Z,1022.75
2023-01-27T00:18:27.150Z,1022.72
2023-01-27T00:19:27.212Z,1022.74
2023-01-27T00:20:27.152Z,1022.75
2023-01-27T00:21:27.171Z,1022.71
2023-01-27T00:22:27.174Z,1022.69
2023-01-27T00:23:27.148Z,1022.71
2023-01-27T00:24:27.181Z,1022.71
2023-01-27T00:25:27.209Z,1022.67
2023-01-27T00:26:27.161Z,1022.69
2023-01-27T00:27:27.161Z,1022.66
2023-01-27T00:28:27.150Z,1022.65
2023-01-27T00:29:27.157Z,1022.67
2023-01-27T00:30:27.154Z,1022.66
2023-01-27T00:31:27.281Z,1022.64
2023-01-27T00:32:27.178Z,1022.63
2023-01-27T00:33:27.153Z,1022.6
2023-01-27T00:34:27.184Z,1022.61
2023-01-27T00:35:27.146Z,1022.64
2023-01-27T00:36:27.169Z,1022.65
2023-01-27T00:37:27.173Z,1022.63
2023-01-27T00:38:27.150Z,1022.59
2023-01-27T00:39:27.157Z,1022.63
2023-01-27T00:40:27.161Z,1022.61
2023-01-27T00:41:27.179Z,1022.63
2023-01-27T00:42:27.163Z,1022.64
2023-01-27T00:43:27.149Z,1022.65
2023-01-27T00:44:27.164Z,1022.67
2023-01-27T00:45:27.165Z,1022.61
2023-01-27T00:46:27.404Z,1022.66
2023-01-27T00:47:27.165Z,1022.66
2023-01-27T00:48:27.167Z,1022.68
2023-01-27T00:49:27.167Z,1022.61
2023-01-27T00:50:27.168Z,1022.63
2023-01-27T00:51:27.182Z,1022.64
2023-01-27T00:52:27.177Z,1022.65
2023-01-27T00:53:27.167Z,1022.64
2023-01-27T00:54:27.170Z,1022.71
2023-01-27T00:55:27.165Z,1022.67
2023-01-27T00:56:27.181Z,1022.68
2023-01-27T00:57:27.169Z,1022.71
2023-01-27T00:58:27.167Z,1022.72
2023-01-27T00:59:27.160Z,1022.73
2023-01-27T01:00:27.157Z,1022.76
2023-01-27T01:01:27.240Z,1022.78
2023-01-27T01:02:27.200Z,1022.73
2023-01-27T01:03:27.182Z,1022.77
2023-01-27T01:04:27.165Z,1022.75
2023-01-27T01:05:27.172Z,1022.8
2023-01-27T01:06:27.184Z,1022.76
2023-01-27T01:07:27.193Z,1022.83
2023-01-27T01:08:27.160Z,1022.8
2023-01-27T01:09:27.172Z,1022.82
2023-01-27T01:10:27.161Z,1022.81
2023-01-27T01:11:27.187Z,1022.9
2023-01-27T01:12:27.160Z,1022.88
2023-01-27T01:13:27.146Z,1022.92
2023-01-27T01:14:27.174Z,1022.91
2023-01-27T01:15:27.164Z,1022.94
2023-01-27T01:16:27.281Z,1022.97
2023-01-27T01:17:27.160Z,1022.97
2023-01-27T01:18:27.169Z,1022.94
2023-01-27T01:19:27.167Z,1022.94
2023-01-27T01:20:27.162Z,1022.91
2023-01-27T01:21:27.227Z,1022.9
2023-01-27T01:22:27.183Z,1022.92
2023-01-27T01:23:27.165Z,1022.93
2023-01-27T01:24:27.204Z,1022.96
2023-01-27T01:25:27.151Z,1022.97
2023-01-27T01:26:27.189Z,1022.96
2023-01-27T01:27:27.146Z,1022.99
2023-01-27T01:28:27.147Z,1023.03
2023-01-27T01:29:27.164Z,1023.02
2023-01-27T01:30:27.269Z,1023.03
2023-01-27T01:31:27.200Z,1023.01
2023-01-27T01:32:27.148Z,1023.04
2023-01-27T01:33:27.145Z,1023.05
2023-01-27T01:34:27.152Z,1023.04
2023-01-27T01:35:27.158Z,1023.04
2023-01-27T01:36:27.183Z,1023.02
2023-01-27T01:37:27.165Z,1023.03
2023-01-27T01:38:27.153Z,1023.03
2023-01-27T01:39:27.152Z,1023.03
2023-01-27T01:40:27.145Z,1023.04
2023-01-27T01:41:27.160Z,1023
2023-01-27T01:42:27.151Z,1023.04
2023-01-27T01:43:27.156Z,1023.05
2023-01-27T01:44:27.150Z,1023.02
2023-01-27T01:45:27.156Z,1023.07
2023-01-27T01:46:27.171Z,1023.04
2023-01-27T01:47:27.150Z,1023.04
2023-01-27T01:48:27.148Z,1023.04
2023-01-27T01:49:27.158Z,1023.05
2023-01-27T01:50:27.154Z,1023.02
2023-01-27T01:51:27.170Z,1023
2023-01-27T01:52:27.179Z,1023.02
2023-01-27T01:53:27.147Z,1022.99
2023-01-27T01:54:27.151Z,1023.04
2023-01-27T01:55:27.149Z,1023.05
2023-01-27T01:56:27.173Z,1023.01
2023-01-27T01:57:27.155Z,1023.03
2023-01-27T01:58:27.168Z,1023.02
2023-01-27T01:59:27.184Z,1023.02
2023-01-27T02:00:27.157Z,1022.99
2023-01-27T02:01:27.191Z,1023.03
2023-01-27T02:02:27.238Z,1022.96
2023-01-27T02:03:27.180Z,1022.96
2023-01-27T02:04:27.164Z,1022.97
2023-01-27T02:05:27.163Z,1022.99
2023-01-27T02:06:27.175Z,1022.91
2023-01-27T02:07:27.684Z,1022.93
2023-01-27T02:08:27.148Z,1022.95
2023-01-27T02:09:27.164Z,1022.91
2023-01-27T02:10:27.169Z,1022.97
2023-01-27T02:11:27.185Z,1022.93
2023-01-27T02:12:27.165Z,1022.95
2023-01-27T02:13:27.168Z,1022.96
2023-01-27T02:14:27.152Z,1022.99
2023-01-27T02:15:27.165Z,1022.93
2023-01-27T02:16:27.204Z,1022.94
2023-01-27T02:17:27.163Z,1022.92
2023-01-27T02:18:27.172Z,1022.95
2023-01-27T02:19:27.157Z,1022.94
2023-01-27T02:20:27.184Z,1022.91
2023-01-27T02:21:27.183Z,1022.89
2023-01-27T02:22:27.182Z,1022.89
2023-01-27T02:23:27.223Z,1022.88
2023-01-27T02:24:27.182Z,1022.93
2023-01-27T02:25:27.173Z,1022.89
2023-01-27T02:26:27.220Z,1022.88
2023-01-27T02:27:27.161Z,1022.88
2023-01-27T02:28:27.173Z,1022.87
2023-01-27T02:29:27.268Z,1022.9
2023-01-27T02:30:27.230Z,1022.9
2023-01-27T02:31:27.264Z,1022.9
2023-01-27T02:32:27.162Z,1022.92
2023-01-27T02:33:27.168Z,1022.93
2023-01-27T02:34:27.165Z,1022.98
2023-01-27T02:35:27.242Z,1022.95
2023-01-27T02:36:27.183Z,1022.93
2023-01-27T02:37:27.185Z,1022.95
2023-01-27T02:38:27.146Z,1022.95
2023-01-27T02:39:27.176Z,1022.92
2023-01-27T02:40:27.164Z,1022.89
2023-01-27T02:41:27.173Z,1022.91
2023-01-27T02:42:27.145Z,1022.9
2023-01-27T02:43:27.148Z,1022.91
2023-01-27T02:44:27.138Z,1022.91
2023-01-27T02:45:27.141Z,1022.91
2023-01-27T02:46:27.297Z,1022.9
2023-01-27T02:47:27.143Z,1022.9
2023-01-27T02:48:27.138Z,1022.96
2023-01-27T02:49:27.188Z,1022.95
2023-01-27T02:50:27.148Z,1022.96
2023-01-27T02:51:27.162Z,1022.96
2023-01-27T02:52:27.156Z,1022.99
2023-01-27T02:53:27.138Z,1022.94
2023-01-27T02:54:27.159Z,1022.98
2023-01-27T02:55:27.142Z,1022.99
2023-01-27T02:56:27.167Z,1023
2023-01-27T02:57:27.148Z,1022.99
2023-01-27T02:58:27.141Z,1023.02
2023-01-27T02:59:27.138Z,1023
2023-01-27T03:00:27.140Z,1023
2023-01-27T03:01:27.211Z,1022.91
2023-01-27T03:02:27.197Z,1022.96
2023-01-27T03:03:27.155Z,1022.94
2023-01-27T03:04:27.142Z,1022.92
2023-01-27T03:05:27.149Z,1022.95
2023-01-27T03:06:27.179Z,1022.93
2023-01-27T03:07:27.177Z,1022.92
2023-01-27T03:08:27.170Z,1022.94
2023-01-27T03:09:27.150Z,1022.95
2023-01-27T03:10:27.154Z,1022.9
2023-01-27T03:11:27.170Z,1022.92
2023-01-27T03:12:27.169Z,1022.85
2023-01-27T03:13:27.157Z,1022.87
2023-01-27T03:14:27.169Z,1022.85
2023-01-27T03:15:27.177Z,1022.82
2023-01-27T03:16:27.176Z,1022.79
2023-01-27T03:17:27.150Z,1022.78
2023-01-27T03:18:27.158Z,1022.72
2023-01-27T03:19:27.162Z,1022.73
2023-01-27T03:20:27.157Z,1022.75
2023-01-27T03:21:27.163Z,1022.74
2023-01-27T03:22:27.175Z,1022.75
2023-01-27T03:23:27.164Z,1022.74
2023-01-27T03:24:27.241Z,1022.71
2023-01-27T03:25:27.165Z,1022.76
2023-01-27T03:26:27.193Z,1022.74
2023-01-27T03:27:27.166Z,1022.77
2023-01-27T03:28:27.179Z,1022.77
2023-01-27T03:29:27.153Z,1022.75
2023-01-27T03:30:27.165Z,1022.74
2023-01-27T03:31:27.351Z,1022.74
2023-01-27T03:32:27.180Z,1022.82
2023-01-27T03:33:27.160Z,1022.79
2023-01-27T03:34:27.164Z,1022.81
2023-01-27T03:35:27.152Z,1022.87
2023-01-27T03:36:27.176Z,1022.87
2023-01-27T03:37:27.173Z,1022.87
2023-01-27T03:38:27.153Z,1022.89
2023-01-27T03:39:27.170Z,1022.92
2023-01-27T03:40:27.159Z,1022.93
2023-01-27T03:41:27.178Z,1022.93
2023-01-27T03:42:27.147Z,1022.93
2023-01-27T03:43:27.157Z,1022.94
2023-01-27T03:44:27.167Z,1022.97
2023-01-27T03:45:27.157Z,1022.95
2023-01-27T03:46:27.235Z,1022.98
2023-01-27T03:47:27.160Z,1022.98
2023-01-27T03:48:27.170Z,1023
2023-01-27T03:49:27.157Z,1022.98
2023-01-27T03:50:27.156Z,1022.97
2023-01-27T03:51:27.177Z,1022.97
2023-01-27T03:52:27.167Z,1022.99
2023-01-27T03:53:27.137Z,1022.97
2023-01-27T03:54:27.144Z,1023.02
2023-01-27T03:55:27.140Z,1023.01
2023-01-27T03:56:27.193Z,1023.01
2023-01-27T03:57:27.144Z,1023.05
2023-01-27T03:58:27.148Z,1023.04
2023-01-27T03:59:27.135Z,1022.99
2023-01-27T04:00:27.162Z,1023.03
2023-01-27T04:01:27.167Z,1022.98
2023-01-27T04:02:27.148Z,1022.96
2023-01-27T04:03:27.144Z,1022.95
2023-01-27T04:04:27.142Z,1022.95
2023-01-27T04:05:27.135Z,1022.93
2023-01-27T04:06:27.155Z,1022.91
2023-01-27T04:07:27.169Z,1022.93
2023-01-27T04:08:27.143Z,1022.89
2023-01-27T04:09:27.149Z,1022.91
2023-01-27T04:10:27.143Z,1022.92
2023-01-27T04:11:27.171Z,1022.89
2023-01-27T04:12:27.139Z,1022.91
2023-01-27T04:13:27.139Z,1022.85
2023-01-27T04:14:27.147Z,1022.91
2023-01-27T04:15:27.174Z,1022.88
2023-01-27T04:16:27.165Z,1022.91
2023-01-27T04:17:27.165Z,1022.85
2023-01-27T04:18:27.158Z,1022.87
2023-01-27T04:19:27.167Z,1022.85
2023-01-27T04:20:27.203Z,1022.87
2023-01-27T04:21:27.288Z,1022.83
2023-01-27T04:22:27.173Z,1022.83
2023-01-27T04:23:27.160Z,1022.87
2023-01-27T04:24:27.228Z,1022.88
2023-01-27T04:25:27.182Z,1022.88
2023-01-27T04:26:27.165Z,1022.91
2023-01-27T04:27:27.159Z,1022.9
2023-01-27T04:28:43.320Z,1022.89
2023-01-27T04:29:27.154Z,1022.91
2023-01-27T04:30:27.160Z,1022.92
2023-01-27T04:31:27.232Z,1022.92
2023-01-27T04:32:27.153Z,1022.91
2023-01-27T04:33:27.163Z,1022.97
2023-01-27T04:34:27.180Z,1022.99
2023-01-27T04:35:37.471Z,1022.97
2023-01-27T04:36:27.170Z,1023
2023-01-27T04:37:27.180Z,1022.99
2023-01-27T04:38:27.165Z,1022.97
2023-01-27T04:39:27.159Z,1023.04
2023-01-27T04:40:27.166Z,1023.07
2023-01-27T04:41:27.221Z,1023.02
2023-01-27T04:42:27.153Z,1023.02
2023-01-27T04:43:27.185Z,1023.06
2023-01-27T04:44:27.153Z,1023.08
2023-01-27T04:45:27.201Z,1023.1
2023-01-27T04:46:27.179Z,1023.14
2023-01-27T04:47:27.148Z,1023.14
2023-01-27T04:48:27.188Z,1023.14
2023-01-27T04:49:27.372Z,1023.11
2023-01-27T04:50:27.159Z,1023.07
2023-01-27T04:51:27.169Z,1023.08
2023-01-27T04:52:27.169Z,1023.08
2023-01-27T04:53:27.158Z,1023.13
2023-01-27T04:54:27.157Z,1023.11
2023-01-27T04:55:27.153Z,1023.15
2023-01-27T04:56:27.179Z,1023.07
2023-01-27T04:57:27.159Z,1023.13
2023-01-27T04:58:27.152Z,1023.17
2023-01-27T04:59:27.238Z,1023.13
2023-01-27T05:00:27.159Z,1023.12
2023-01-27T05:01:27.285Z,1023.18
2023-01-27T05:02:27.154Z,1023.17
2023-01-27T05:03:27.144Z,1023.16
2023-01-27T05:04:27.335Z,1023.16
2023-01-27T05:05:27.136Z,1023.17
2023-01-27T05:06:27.176Z,1023.16
2023-01-27T05:07:27.154Z,1023.13
2023-01-27T05:08:27.153Z,1023.22
2023-01-27T05:09:27.141Z,1023.2
2023-01-27T05:10:27.152Z,1023.18
2023-01-27T05:11:27.156Z,1023.21
2023-01-27T05:12:27.145Z,1023.2
2023-01-27T05:13:27.148Z,1023.22
2023-01-27T05:14:27.150Z,1023.19
2023-01-27T05:15:27.284Z,1023.21
2023-01-27T05:16:27.180Z,1023.22
2023-01-27T05:17:27.139Z,1023.25
2023-01-27T05:18:27.136Z,1023.23
2023-01-27T05:19:27.146Z,1023.2
2023-01-27T05:20:27.173Z,1023.27
2023-01-27T05:21:27.157Z,1023.22
2023-01-27T05:22:27.156Z,1023.26
2023-01-27T05:23:27.139Z,1023.25
2023-01-27T05:24:27.164Z,1023.23
2023-01-27T05:25:27.159Z,1023.31
2023-01-27T05:26:27.152Z,1023.29
2023-01-27T05:27:27.153Z,1023.29
2023-01-27T05:28:28.325Z,1023.33
2023-01-27T05:29:27.151Z,1023.27
2023-01-27T05:30:27.151Z,1023.38
2023-01-27T05:31:27.312Z,1023.36
2023-01-27T05:32:27.155Z,1023.36
2023-01-27T05:33:27.163Z,1023.4
2023-01-27T05:34:27.165Z,1023.39
2023-01-27T05:35:27.155Z,1023.41
2023-01-27T05:36:27.175Z,1023.37
2023-01-27T05:37:27.176Z,1023.39
2023-01-27T05:38:27.162Z,1023.43
2023-01-27T05:39:27.166Z,1023.43
2023-01-27T05:40:27.151Z,1023.44
2023-01-27T05:41:27.168Z,1023.47
2023-01-27T05:42:27.167Z,1023.43
2023-01-27T05:43:27.171Z,1023.44
2023-01-27T05:44:27.186Z,1023.45
2023-01-27T05:45:27.160Z,1023.45
2023-01-27T05:46:27.506Z,1023.44
2023-01-27T05:47:27.162Z,1023.44
2023-01-27T05:48:27.160Z,1023.47
2023-01-27T05:49:27.159Z,1023.47
2023-01-27T05:50:27.140Z,1023.45
2023-01-27T05:51:27.176Z,1023.48
2023-01-27T05:52:27.170Z,1023.51
2023-01-27T05:53:27.174Z,1023.54
2023-01-27T05:54:27.154Z,1023.5
2023-01-27T05:55:27.173Z,1023.56
2023-01-27T05:56:27.170Z,1023.57
2023-01-27T05:57:27.159Z,1023.57
2023-01-27T05:58:27.161Z,1023.6
2023-01-27T05:59:27.160Z,1023.61
2023-01-27T06:00:27.146Z,1023.64
2023-01-27T06:01:27.178Z,1023.65
2023-01-27T06:02:27.161Z,1023.64
2023-01-27T06:03:27.164Z,1023.63
2023-01-27T06:04:27.178Z,1023.66
2023-01-27T06:05:27.160Z,1023.68
2023-01-27T06:06:27.218Z,1023.64
2023-01-27T06:07:27.164Z,1023.64
2023-01-27T06:08:27.173Z,1023.65
2023-01-27T06:09:27.162Z,1023.66
2023-01-27T06:10:27.143Z,1023.69
2023-01-27T06:11:27.179Z,1023.72
2023-01-27T06:12:27.154Z,1023.73
2023-01-27T06:13:27.147Z,1023.72
2023-01-27T06:14:27.140Z,1023.68
2023-01-27T06:15:27.156Z,1023.69
2023-01-27T06:16:27.202Z,1023.69
2023-01-27T06:17:27.149Z,1023.71
2023-01-27T06:18:27.142Z,1023.75
2023-01-27T06:19:27.136Z,1023.7
2023-01-27T06:20:27.153Z,1023.72
2023-01-27T06:21:27.149Z,1023.72
2023-01-27T06:22:27.156Z,1023.73
2023-01-27T06:23:27.136Z,1023.71
2023-01-27T06:24:27.153Z,1023.73
2023-01-27T06:25:27.140Z,1023.73
2023-01-27T06:26:27.166Z,1023.73
2023-01-27T06:27:27.140Z,1023.74
2023-01-27T06:28:29.419Z,1023.75
2023-01-27T06:29:27.153Z,1023.74
2023-01-27T06:30:27.154Z,1023.74
2023-01-27T06:31:27.329Z,1023.73
2023-01-27T06:32:27.139Z,1023.82
2023-01-27T06:33:27.145Z,1023.8
2023-01-27T06:34:27.135Z,1023.78
2023-01-27T06:35:27.144Z,1023.78
2023-01-27T06:36:27.165Z,1023.83
2023-01-27T06:37:27.153Z,1023.81
2023-01-27T06:38:27.140Z,1023.88
2023-01-27T06:39:27.139Z,1023.82
2023-01-27T06:40:27.151Z,1023.77
2023-01-27T06:41:27.163Z,1023.83
2023-01-27T06:42:27.152Z,1023.83
2023-01-27T06:43:27.152Z,1023.85
2023-01-27T06:44:27.158Z,1023.86
2023-01-27T06:45:27.171Z,1023.85
2023-01-27T06:46:27.191Z,1023.88
2023-01-27T06:47:27.159Z,1023.88
2023-01-27T06:48:27.155Z,1023.88
2023-01-27T06:49:27.162Z,1023.91
2023-01-27T06:50:27.161Z,1023.91
2023-01-27T06:51:27.165Z,1023.91
2023-01-27T06:52:27.162Z,1023.93
2023-01-27T06:53:27.145Z,1023.92
2023-01-27T06:54:27.164Z,1023.9
2023-01-27T06:55:27.153Z,1023.91
2023-01-27T06:56:27.166Z,1023.9
2023-01-27T06:57:27.155Z,1023.87
2023-01-27T06:58:27.153Z,1023.93
2023-01-27T06:59:27.160Z,1023.92
2023-01-27T07:00:27.156Z,1023.9
2023-01-27T07:01:27.190Z,1023.96
2023-01-27T07:02:27.179Z,1023.95
2023-01-27T07:03:27.160Z,1023.93
2023-01-27T07:04:27.159Z,1023.98
2023-01-27T07:05:27.160Z,1023.98
2023-01-27T07:06:27.164Z,1024
2023-01-27T07:07:27.169Z,1024
2023-01-27T07:08:27.164Z,1024
2023-01-27T07:09:27.160Z,1024.03
2023-01-27T07:10:27.148Z,1024.05
2023-01-27T07:11:27.165Z,1024
2023-01-27T07:12:27.158Z,1024
2023-01-27T07:13:27.156Z,1024.07
2023-01-27T07:14:27.153Z,1024.08
2023-01-27T07:15:27.160Z,1024.04
2023-01-27T07:16:27.236Z,1024.08
2023-01-27T07:17:27.151Z,1024.11
2023-01-27T07:18:27.160Z,1024.08
2023-01-27T07:19:27.153Z,1024.05
2023-01-27T07:20:27.262Z,1024.04
2023-01-27T07:21:27.178Z,1024.03
2023-01-27T07:22:27.271Z,1024.07
2023-01-27T07:23:27.139Z,1024.07
2023-01-27T07:24:27.256Z,1024.03
2023-01-27T07:25:27.164Z,1024.05
2023-01-27T07:26:27.173Z,1023.97
2023-01-27T07:27:27.140Z,1024.04
2023-01-27T07:28:27.140Z,1024.05
2023-01-27T07:29:27.149Z,1023.99
2023-01-27T07:30:27.188Z,1024
2023-01-27T07:31:27.344Z,1024.03
2023-01-27T07:32:28.343Z,1023.99
2023-01-27T07:33:27.148Z,1023.98
2023-01-27T07:34:27.141Z,1023.97
2023-01-27T07:35:27.157Z,1023.98
2023-01-27T07:36:27.167Z,1024.05
2023-01-27T07:37:27.153Z,1024
2023-01-27T07:38:27.156Z,1024.01
2023-01-27T07:39:27.147Z,1024.03
2023-01-27T07:40:27.153Z,1024.14
2023-01-27T07:41:27.173Z,1024.18
2023-01-27T07:42:27.139Z,1024.17
2023-01-27T07:43:27.142Z,1024.18
2023-01-27T07:44:27.274Z,1024.15
2023-01-27T07:45:27.208Z,1024.16
2023-01-27T07:46:27.159Z,1024.18
2023-01-27T07:47:27.141Z,1024.18
2023-01-27T07:48:27.142Z,1024.16
2023-01-27T07:49:27.595Z,1024.14
2023-01-27T07:50:27.152Z,1024.1
2023-01-27T07:51:27.150Z,1024.13
2023-01-27T07:52:27.166Z,1024.14
2023-01-27T07:53:27.152Z,1024.17
2023-01-27T07:54:27.157Z,1024.12
2023-01-27T07:55:27.160Z,1024.08
2023-01-27T07:56:27.167Z,1024.09
2023-01-27T07:57:27.165Z,1024.08
2023-01-27T07:58:27.158Z,1024.09
2023-01-27T07:59:27.156Z,1024.11
2023-01-27T08:00:27.212Z,1024.12
2023-01-27T08:01:27.167Z,1024.14
2023-01-27T08:02:27.164Z,1024.14
2023-01-27T08:03:27.218Z,1024.19
2023-01-27T08:04:27.155Z,1024.07
2023-01-27T08:05:27.159Z,1024.13
2023-01-27T08:06:27.175Z,1024.13
2023-01-27T08:07:27.178Z,1024.09
2023-01-27T08:08:27.155Z,1024.1
2023-01-27T08:09:27.154Z,1024.11
2023-01-27T08:10:27.149Z,1024.16
2023-01-27T08:11:27.188Z,1024.14
2023-01-27T08:12:27.156Z,1024.13
2023-01-27T08:13:27.207Z,1024.12
2023-01-27T08:14:27.156Z,1024.18
2023-01-27T08:15:27.159Z,1024.18
2023-01-27T08:16:27.243Z,1024.19
2023-01-27T08:17:27.165Z,1024.21
2023-01-27T08:18:27.165Z,1024.16
2023-01-27T08:19:27.160Z,1024.22
2023-01-27T08:20:27.211Z,1024.21
2023-01-27T08:21:27.183Z,1024.15
2023-01-27T08:22:27.181Z,1024.17
2023-01-27T08:23:27.154Z,1024.2
2023-01-27T08:24:27.261Z,1024.2
2023-01-27T08:25:27.160Z,1024.18
2023-01-27T08:26:27.166Z,1024.2
2023-01-27T08:27:27.175Z,1024.13
2023-01-27T08:28:27.160Z,1024.14
2023-01-27T08:29:27.153Z,1024.15
2023-01-27T08:30:27.265Z,1024.17
2023-01-27T08:31:27.192Z,1024.22
2023-01-27T08:32:27.151Z,1024.27
2023-01-27T08:33:27.156Z,1024.27
2023-01-27T08:34:27.155Z,1024.29
2023-01-27T08:35:27.152Z,1024.29
2023-01-27T08:36:27.183Z,1024.23
2023-01-27T08:37:27.169Z,1024.24
2023-01-27T08:38:27.155Z,1024.27
2023-01-27T08:39:27.150Z,1024.27
2023-01-27T08:40:27.187Z,1024.3
2023-01-27T08:41:27.181Z,1024.29
2023-01-27T08:42:27.144Z,1024.29
2023-01-27T08:43:27.141Z,1024.36
2023-01-27T08:44:27.135Z,1024.33
2023-01-27T08:45:27.147Z,1024.34
2023-01-27T08:46:27.390Z,1024.33
2023-01-27T08:47:27.139Z,1024.33
2023-01-27T08:48:27.137Z,1024.3
2023-01-27T08:49:27.151Z,1024.31
2023-01-27T08:50:27.147Z,1024.33
2023-01-27T08:51:27.165Z,1024.35
2023-01-27T08:52:27.166Z,1024.32
2023-01-27T08:53:27.146Z,1024.34
2023-01-27T08:54:27.141Z,1024.32
2023-01-27T08:55:27.141Z,1024.37
2023-01-27T08:56:27.153Z,1024.41
2023-01-27T08:57:27.150Z,1024.42
2023-01-27T08:58:27.143Z,1024.42
2023-01-27T08:59:27.144Z,1024.4
2023-01-27T09:00:27.190Z,1024.43
2023-01-27T09:01:27.199Z,1024.46
2023-01-27T09:02:27.144Z,1024.49
2023-01-27T09:03:27.156Z,1024.49
2023-01-27T09:04:27.170Z,1024.51
2023-01-27T09:05:27.147Z,1024.49
2023-01-27T09:06:27.155Z,1024.53
2023-01-27T09:07:27.156Z,1024.53
2023-01-27T09:08:27.149Z,1024.55
2023-01-27T09:09:27.164Z,1024.6
2023-01-27T09:10:27.168Z,1024.61
2023-01-27T09:11:27.156Z,1024.59
2023-01-27T09:12:27.147Z,1024.61
2023-01-27T09:13:27.155Z,1024.63
2023-01-27T09:14:27.160Z,1024.62
2023-01-27T09:15:27.150Z,1024.61
2023-01-27T09:16:27.226Z,1024.65
2023-01-27T09:17:27.160Z,1024.64
2023-01-27T09:18:27.164Z,1024.63
2023-01-27T09:19:27.150Z,1024.63
2023-01-27T09:20:27.151Z,1024.66
2023-01-27T09:21:27.504Z,1024.69
2023-01-27T09:22:27.171Z,1024.69
2023-01-27T09:23:27.237Z,1024.66
2023-01-27T09:24:27.202Z,1024.68
2023-01-27T09:25:27.141Z,1024.7
2023-01-27T09:26:27.197Z,1024.73
2023-01-27T09:27:38.472Z,1024.73
2023-01-27T09:28:27.156Z,1024.71
2023-01-27T09:29:27.229Z,1024.78
2023-01-27T09:30:27.156Z,1024.76
2023-01-27T09:31:27.314Z,1024.79
2023-01-27T09:32:27.184Z,1024.84
2023-01-27T09:33:27.161Z,1024.82
2023-01-27T09:34:27.159Z,1024.83
2023-01-27T09:35:27.213Z,1024.87
2023-01-27T09:36:27.179Z,1024.86
2023-01-27T09:37:28.015Z,1024.84
2023-01-27T09:38:27.164Z,1024.85
2023-01-27T09:39:27.159Z,1024.89
2023-01-27T09:40:27.152Z,1024.86
2023-01-27T09:41:27.188Z,1024.86
2023-01-27T09:42:27.152Z,1024.86
2023-01-27T09:43:27.170Z,1024.83
2023-01-27T09:44:27.160Z,1024.83
2023-01-27T09:45:27.154Z,1024.85
2023-01-27T09:46:27.210Z,1024.84
2023-01-27T09:47:27.154Z,1024.84
2023-01-27T09:48:27.153Z,1024.84
2023-01-27T09:49:27.172Z,1024.88
2023-01-27T09:50:27.158Z,1024.85
2023-01-27T09:51:27.182Z,1024.87
2023-01-27T09:52:38.374Z,1024.86
2023-01-27T09:53:27.160Z,1024.85
2023-01-27T09:54:27.160Z,1024.87
2023-01-27T09:55:27.160Z,1024.83
2023-01-27T09:56:27.175Z,1024.8
2023-01-27T09:57:27.148Z,1024.81
2023-01-27T09:58:27.160Z,1024.82
2023-01-27T09:59:27.148Z,1024.84
2023-01-27T10:00:27.182Z,1024.82
2023-01-27T10:01:27.346Z,1024.82
2023-01-27T10:02:27.143Z,1024.85
2023-01-27T10:03:27.160Z,1024.81
2023-01-27T10:04:27.220Z,1024.8
2023-01-27T10:05:27.147Z,1024.82
2023-01-27T10:06:27.171Z,1024.81
2023-01-27T10:07:27.157Z,1024.77
2023-01-27T10:08:27.142Z,1024.81
2023-01-27T10:09:27.136Z,1024.78
2023-01-27T10:10:27.158Z,1024.81
2023-01-27T10:11:27.151Z,1024.76
2023-01-27T10:12:27.143Z,1024.74
2023-01-27T10:13:27.163Z,1024.71
2023-01-27T10:14:27.176Z,1024.78
2023-01-27T10:15:27.178Z,1024.76
2023-01-27T10:16:27.284Z,1024.8
2023-01-27T10:17:27.149Z,1024.84
2023-01-27T10:18:27.173Z,1024.84
2023-01-27T10:19:27.153Z,1024.85
2023-01-27T10:20:27.158Z,1024.84
2023-01-27T10:21:27.158Z,1024.83
2023-01-27T10:22:27.156Z,1024.82
2023-01-27T10:23:27.138Z,1024.8
2023-01-27T10:24:27.196Z,1024.74
2023-01-27T10:25:27.146Z,1024.78
2023-01-27T10:26:27.178Z,1024.73
2023-01-27T10:27:27.136Z,1024.77
2023-01-27T10:28:27.149Z,1024.8
2023-01-27T10:29:27.171Z,1024.73
2023-01-27T10:30:27.158Z,1024.77
2023-01-27T10:31:27.315Z,1024.75
2023-01-27T10:32:27.159Z,1024.7
2023-01-27T10:33:28.590Z,1024.75
2023-01-27T10:34:27.152Z,1024.69
2023-01-27T10:35:27.165Z,1024.73
2023-01-27T10:36:27.175Z,1024.74
2023-01-27T10:37:27.185Z,1024.73
2023-01-27T10:38:27.155Z,1024.74
2023-01-27T10:39:27.224Z,1024.69
2023-01-27T10:40:27.155Z,1024.68
2023-01-27T10:41:27.181Z,1024.7
2023-01-27T10:42:27.156Z,1024.75
2023-01-27T10:43:27.159Z,1024.76
2023-01-27T10:44:27.200Z,1024.76
2023-01-27T10:45:27.194Z,1024.78
2023-01-27T10:46:27.259Z,1024.77
2023-01-27T10:47:27.162Z,1024.77
2023-01-27T10:48:27.159Z,1024.8
2023-01-27T10:49:27.148Z,1024.79
2023-01-27T10:50:27.155Z,1024.82
2023-01-27T10:51:27.176Z,1024.75
2023-01-27T10:52:27.192Z,1024.79
2023-01-27T10:53:27.160Z,1024.79
2023-01-27T10:54:27.156Z,1024.78
2023-01-27T10:55:27.139Z,1024.8
2023-01-27T10:56:27.184Z,1024.76
2023-01-27T10:57:27.160Z,1024.79
2023-01-27T10:58:27.150Z,1024.69
2023-01-27T10:59:27.149Z,1024.7
2023-01-27T11:00:51.873Z,1024.69
2023-01-27T11:01:27.607Z,1024.67
2023-01-27T11:02:27.156Z,1024.68
2023-01-27T11:03:27.152Z,1024.69
2023-01-27T11:04:27.209Z,1024.69
2023-01-27T11:05:27.156Z,1024.7
2023-01-27T11:06:27.168Z,1024.71
2023-01-27T11:07:27.176Z,1024.67
2023-01-27T11:08:27.148Z,1024.64
2023-01-27T11:09:27.170Z,1024.61
2023-01-27T11:10:27.164Z,1024.61
2023-01-27T11:11:27.178Z,1024.59
2023-01-27T11:12:27.153Z,1024.55
2023-01-27T11:13:27.144Z,1024.58
2023-01-27T11:14:27.143Z,1024.59
2023-01-27T11:15:27.138Z,1024.55
2023-01-27T11:16:27.206Z,1024.57
2023-01-27T11:17:27.144Z,1024.58
2023-01-27T11:18:27.141Z,1024.54
2023-01-27T11:19:27.152Z,1024.59
2023-01-27T11:20:27.160Z,1024.57
2023-01-27T11:21:27.182Z,1024.58
2023-01-27T11:22:27.167Z,1024.57
2023-01-27T11:23:27.147Z,1024.53
2023-01-27T11:24:27.280Z,1024.57
2023-01-27T11:25:27.151Z,1024.57
2023-01-27T11:26:27.156Z,1024.56
2023-01-27T11:27:27.162Z,1024.57
2023-01-27T11:28:27.133Z,1024.56
2023-01-27T11:29:27.141Z,1024.56
2023-01-27T11:30:27.321Z,1024.55
2023-01-27T11:31:27.252Z,1024.53
2023-01-27T11:32:27.142Z,1024.54
2023-01-27T11:33:27.143Z,1024.55
2023-01-27T11:34:27.152Z,1024.54
2023-01-27T11:35:27.141Z,1024.57
2023-01-27T11:36:27.161Z,1024.56
2023-01-27T11:37:27.162Z,1024.54
2023-01-27T11:38:27.139Z,1024.55
2023-01-27T11:39:27.140Z,1024.57
2023-01-27T11:40:27.170Z,1024.59
2023-01-27T11:41:27.156Z,1024.57
2023-01-27T11:42:27.153Z,1024.54
2023-01-27T11:43:27.161Z,1024.52
2023-01-27T11:44:27.156Z,1024.49
2023-01-27T11:45:27.167Z,1024.47
2023-01-27T11:46:27.181Z,1024.44
2023-01-27T11:47:27.161Z,1024.44
2023-01-27T11:48:27.149Z,1024.52
2023-01-27T11:49:27.172Z,1024.51
2023-01-27T11:50:27.213Z,1024.56
2023-01-27T11:51:27.177Z,1024.49
2023-01-27T11:52:27.220Z,1024.47
2023-01-27T11:53:27.165Z,1024.53
2023-01-27T11:54:27.163Z,1024.53
2023-01-27T11:55:27.250Z,1024.51
2023-01-27T11:56:27.177Z,1024.49
2023-01-27T11:57:27.156Z,1024.52
2023-01-27T11:58:27.160Z,1024.52
2023-01-27T11:59:27.155Z,1024.51
2023-01-27T12:00:27.153Z,1024.53
2023-01-27T12:01:27.171Z,1024.46
2023-01-27T12:02:27.155Z,1024.51
2023-01-27T12:03:27.245Z,1024.49
2023-01-27T12:04:27.167Z,1024.52
2023-01-27T12:05:27.149Z,1024.5
2023-01-27T12:06:27.185Z,1024.52
2023-01-27T12:07:27.165Z,1024.54
2023-01-27T12:08:27.153Z,1024.51